Hurley, Virginia
Current Conditions -  °F | °C
As of 12:35 PM on Saturday 25 Oct 2014 (Local Time) from KJFZ Reporting Station
Clear Clear  
Wind Chill: 59°   Ceiling: Unl
Heat Index: 59°   Visibility: 10mi
Dew Point: 43°   Wind: 8mph
Humidity: 55%   Direction: 250°WSW
Pressure: 30.08"   Gusts: NA
Location:  37.42°N, 82.02°W
Report Text: KJFZ 251635Z AUTO 25007KT 10SM CLR 15/06 A3008 RMK AO2 T01510062
Loading
Personal Weather Stations






























Interactive Weather Map
Tropical Storm Tracking
New forecast layout! Learn more

10-Day Weather Forecast

Advertisements
Track Severe Weather on mobile